Time;durP1;ratioP1;P1;durP2;ratioP2;P2;SDS_P1;SDS_P2;PMS_P1;PMS_P2;Temp;Humidity;BMP_temperature;BMP_pressure;BME280_temperature;BME280_humidity;BME280_pressure;Samples;Min_cycle;Max_cycle;Signal;HPM_P1;HPM_P2
2022/09/07 00:01:47;;;;;;;5.05;4.15;;;20.70;80.70;;;;;;5031432;28;20642;-62
2022/09/07 00:04:13;;;;;;;6.88;4.20;;;20.60;80.70;;;;;;5030123;28;20719;-62
2022/09/07 00:06:39;;;;;;;5.13;4.35;;;20.60;80.80;;;;;;5026467;28;20118;-64
2022/09/07 00:09:05;;;;;;;5.65;3.92;;;20.60;81.00;;;;;;5028414;28;20037;-64
2022/09/07 00:11:31;;;;;;;4.68;3.45;;;20.60;81.00;;;;;;5027388;28;20036;-62
2022/09/07 00:13:56;;;;;;;5.60;3.97;;;20.50;81.00;;;;;;5033138;28;20032;-62
2022/09/07 00:16:28;;;;;;;7.20;4.40;;;20.50;81.20;;;;;;5033296;28;20029;-62
2022/09/07 00:18:55;;;;;;;4.18;3.78;;;20.60;81.50;;;;;;4994789;28;1121562;-62
2022/09/07 00:21:23;;;;;;;4.82;4.07;;;20.60;81.30;;;;;;5036086;28;20119;-62
2022/09/07 00:23:49;;;;;;;9.82;3.90;;;20.60;81.20;;;;;;5035137;28;20042;-63
2022/09/07 00:26:18;;;;;;;5.20;4.00;;;20.60;81.30;;;;;;5034949;28;20043;-62
2022/09/07 00:28:45;;;;;;;5.25;3.80;;;20.50;81.30;;;;;;5033515;28;20462;-62
2022/09/07 00:31:16;;;;;;;4.78;3.88;;;20.50;81.00;;;;;;5031300;28;20033;-63
2022/09/07 00:33:42;;;;;;;4.75;3.80;;;20.50;80.80;;;;;;5033046;28;20045;-62
2022/09/07 00:36:08;;;;;;;6.65;3.83;;;20.50;80.80;;;;;;5034500;28;20113;-62
2022/09/07 00:38:34;;;;;;;5.20;3.83;;;20.50;80.80;;;;;;5033492;28;20038;-63
2022/09/07 00:41:00;;;;;;;6.22;4.10;;;20.50;80.80;;;;;;5031060;28;20043;-62
2022/09/07 00:43:47;;;;;;;6.55;4.53;;;20.50;80.80;;;;;;5033212;28;20033;-62
2022/09/07 00:46:18;;;;;;;5.13;4.13;;;20.50;81.50;;;;;;5033359;28;20405;-62
2022/09/07 00:48:47;;;;;;;7.60;4.32;;;20.40;81.10;;;;;;5035889;28;20049;-62
2022/09/07 00:51:28;;;;;;;6.35;4.30;;;20.40;80.90;;;;;;5032737;28;20045;-62
2022/09/07 00:54:00;;;;;;;4.32;3.88;;;20.40;81.20;;;;;;5035311;28;20094;-61
2022/09/07 00:56:28;;;;;;;6.95;4.40;;;20.40;81.30;;;;;;5034642;28;20090;-61
2022/09/07 00:58:55;;;;;;;6.47;4.55;;;20.40;81.30;;;;;;5033326;28;20467;-62
2022/09/07 01:01:20;;;;;;;5.90;4.85;;;20.40;81.30;;;;;;5035262;28;20646;-62
2022/09/07 01:03:49;;;;;;;6.00;4.45;;;20.40;81.50;;;;;;5035196;28;20041;-62
2022/09/07 01:06:30;;;;;;;7.82;5.03;;;20.40;81.50;;;;;;5033235;28;20104;-62
2022/09/07 01:09:02;;;;;;;6.15;4.43;;;20.30;81.80;;;;;;5031923;28;20052;-63
2022/09/07 01:11:31;;;;;;;6.70;4.93;;;20.30;81.70;;;;;;5030216;28;20087;-62
2022/09/07 01:13:57;;;;;;;7.63;5.00;;;20.30;81.80;;;;;;5032423;28;20040;-62
2022/09/07 01:16:57;;;;;;;5.80;4.78;;;20.30;81.70;;;;;;5030089;28;20021;-60
2022/09/07 01:19:37;;;;;;;7.70;6.03;;;20.30;82.60;;;;;;5016249;28;20044;-62
2022/09/07 01:22:32;;;;;;;7.78;5.95;;;20.30;82.40;;;;;;5030156;28;20071;-63
2022/09/07 01:25:13;;;;;;;7.35;6.20;;;20.20;82.60;;;;;;5009797;28;20030;-63
2022/09/07 01:27:57;;;;;;;9.93;7.07;;;20.30;83.10;;;;;;5009491;28;20041;-62
2022/09/07 01:30:23;;;;;;;11.05;7.07;;;20.20;82.40;;;;;;5007546;28;20566;-62
2022/09/07 01:33:18;;;;;;;11.63;7.45;;;20.30;82.70;;;;;;5014990;28;20702;-62
2022/09/07 01:36:14;;;;;;;10.75;7.57;;;20.30;83.90;;;;;;5009713;28;20036;-62
2022/09/07 01:38:53;;;;;;;11.88;8.27;;;20.30;83.70;;;;;;5007817;28;20469;-61
2022/09/07 01:41:19;;;;;;;9.30;7.88;;;20.30;83.30;;;;;;5008654;28;20033;-62
2022/09/07 01:44:05;;;;;;;10.35;7.50;;;20.30;83.20;;;;;;5011128;28;20075;-61
2022/09/07 01:46:59;;;;;;;9.25;8.30;;;20.30;83.30;;;;;;5008647;28;20035;-62
2022/09/07 01:49:49;;;;;;;11.25;8.35;;;20.30;83.90;;;;;;5014649;28;20052;-62
2022/09/07 01:52:53;;;;;;;10.20;7.97;;;20.40;84.70;;;;;;5007901;28;20033;-62
2022/09/07 01:55:30;;;;;;;13.77;9.02;;;20.40;84.10;;;;;;5027118;28;21917;-61
2022/09/07 01:58:05;;;;;;;15.10;9.98;;;20.40;84.10;;;;;;5030624;28;20132;-62
2022/09/07 02:00:33;;;;;;;12.48;10.07;;;20.40;84.00;;;;;;5029363;28;20581;-62
2022/09/07 02:03:12;;;;;;;14.50;10.50;;;20.40;84.00;;;;;;5027660;28;20598;-61
2022/09/07 02:05:48;;;;;;;11.95;9.75;;;20.40;84.70;;;;;;5027533;28;20037;-62
2022/09/07 02:08:24;;;;;;;13.35;11.07;;;20.40;84.80;;;;;;5029377;28;20132;-62
2022/09/07 02:11:03;;;;;;;14.90;11.30;;;20.50;85.00;;;;;;5028887;28;20068;-62
2022/09/07 02:13:36;;;;;;;15.50;10.95;;;20.50;85.00;;;;;;5027899;28;20044;-61
2022/09/07 02:16:09;;;;;;;15.13;10.68;;;20.50;85.00;;;;;;5029814;28;20037;-61
2022/09/07 02:18:43;;;;;;;15.07;10.82;;;20.50;85.20;;;;;;5027440;28;20104;-62
2022/09/07 02:21:10;;;;;;;12.65;10.23;;;20.60;85.10;;;;;;5028116;28;20117;-62
2022/09/07 02:23:49;;;;;;;11.93;10.18;;;20.60;84.80;;;;;;5030062;28;20085;-62
2022/09/07 02:26:20;;;;;;;13.15;10.40;;;20.60;85.20;;;;;;5030086;28;20711;-62
2022/09/07 02:28:46;;;;;;;14.70;10.65;;;20.60;84.70;;;;;;5023426;28;20084;-62
2022/09/07 02:31:12;;;;;;;15.68;10.25;;;20.60;84.60;;;;;;5026562;28;20040;-62
2022/09/07 02:33:38;;;;;;;13.02;9.70;;;20.70;84.60;;;;;;5029292;28;20041;-62
2022/09/07 02:36:05;;;;;;;13.88;9.68;;;20.70;84.50;;;;;;5029210;28;20045;-62
2022/09/07 02:38:31;;;;;;;14.27;9.98;;;20.70;84.30;;;;;;5029673;28;20422;-62
2022/09/07 02:40:59;;;;;;;14.45;10.98;;;20.70;85.20;;;;;;5028903;28;20598;-60
2022/09/07 02:43:29;;;;;;;16.80;10.63;;;20.70;84.30;;;;;;5028125;28;20041;-62
2022/09/07 02:46:09;;;;;;;12.20;8.55;;;20.70;84.20;;;;;;5029373;28;20037;-63
2022/09/07 02:48:47;;;;;;;14.88;8.25;;;20.60;83.60;;;;;;5029709;28;20044;-63
2022/09/07 02:51:17;;;;;;;10.02;7.53;;;20.60;83.30;;;;;;5028355;28;20642;-62
2022/09/07 02:54:13;;;;;;;8.00;7.18;;;20.50;83.30;;;;;;5027166;28;20037;-62
2022/09/07 02:57:00;;;;;;;9.88;7.10;;;20.40;83.60;;;;;;5025047;28;20045;-61
2022/09/07 02:59:34;;;;;;;7.82;7.03;;;20.40;83.60;;;;;;5028207;28;22632;-62
2022/09/07 03:02:05;;;;;;;7.70;6.93;;;20.40;83.40;;;;;;5028415;28;20044;-63
2022/09/07 03:05:13;;;;;;;10.70;7.30;;;20.40;83.40;;;;;;5028477;28;20040;-63
2022/09/07 03:07:45;;;;;;;8.43;7.13;;;20.40;83.30;;;;;;5020735;28;20037;-62
2022/09/07 03:10:13;;;;;;;9.07;7.95;;;20.30;82.90;;;;;;5011716;28;20045;-62
2022/09/07 03:12:48;;;;;;;11.40;8.13;;;20.30;83.10;;;;;;5009729;28;20041;-62
2022/09/07 03:15:17;;;;;;;10.63;7.72;;;20.20;83.50;;;;;;5015752;28;20094;-62
2022/09/07 03:17:44;;;;;;;8.35;7.38;;;20.20;83.40;;;;;;5016698;28;20057;-62
2022/09/07 03:20:10;;;;;;;8.93;7.15;;;20.10;83.40;;;;;;5016327;28;20125;-62
2022/09/07 03:22:36;;;;;;;7.85;7.03;;;20.10;83.50;;;;;;5015186;28;20080;-62
2022/09/07 03:25:03;;;;;;;8.90;6.80;;;20.00;83.50;;;;;;5016204;28;20042;-63
2022/09/07 03:27:30;;;;;;;10.82;8.00;;;20.00;83.40;;;;;;5011143;28;20038;-63
2022/09/07 03:29:56;;;;;;;9.07;7.53;;;20.00;83.60;;;;;;5013229;28;20033;-62
2022/09/07 03:32:22;;;;;;;9.15;7.03;;;19.90;83.60;;;;;;5011737;28;20406;-62
2022/09/07 03:34:48;;;;;;;10.80;7.25;;;20.00;83.60;;;;;;5014136;28;20033;-62
2022/09/07 03:37:13;;;;;;;11.85;7.15;;;20.00;83.50;;;;;;5013087;28;20057;-62
2022/09/07 03:39:39;;;;;;;9.52;7.68;;;20.00;83.40;;;;;;5015042;28;20066;-62
2022/09/07 03:42:05;;;;;;;9.48;7.70;;;20.00;83.30;;;;;;5013725;28;20108;-61
2022/09/07 03:44:31;;;;;;;7.88;7.05;;;20.00;83.30;;;;;;5009855;28;20046;-62
2022/09/07 03:46:56;;;;;;;7.70;6.90;;;20.10;83.10;;;;;;5010104;28;20044;-62
2022/09/07 03:49:22;;;;;;;8.20;6.65;;;20.00;82.80;;;;;;5012357;28;20398;-58
2022/09/07 03:51:48;;;;;;;7.63;6.85;;;20.10;82.70;;;;;;5010152;28;20044;-62
2022/09/07 03:54:13;;;;;;;9.98;7.38;;;20.00;82.50;;;;;;5009062;28;20042;-62
2022/09/07 03:56:39;;;;;;;11.35;6.10;;;20.00;82.50;;;;;;5013088;28;20038;-61
2022/09/07 03:59:05;;;;;;;8.57;6.38;;;20.00;82.50;;;;;;5015042;28;20029;-62
2022/09/07 04:01:30;;;;;;;9.65;6.85;;;20.00;82.60;;;;;;5011200;28;20086;-62
2022/09/07 04:03:58;;;;;;;7.28;6.53;;;20.00;83.40;;;;;;5011779;28;20536;-62
2022/09/07 04:06:24;;;;;;;7.68;6.85;;;20.00;82.50;;;;;;5008648;28;20065;-62
2022/09/07 04:08:49;;;;;;;7.45;6.63;;;20.00;82.60;;;;;;5010370;28;20117;-62
2022/09/07 04:11:17;;;;;;;7.60;6.18;;;20.00;82.60;;;;;;5010592;28;20144;-62
2022/09/07 04:13:43;;;;;;;7.35;6.40;;;20.00;82.70;;;;;;5009684;28;20095;-62
2022/09/07 04:16:14;;;;;;;7.03;6.22;;;19.90;82.60;;;;;;5011545;28;20033;-64
2022/09/07 04:18:40;;;;;;;7.53;6.10;;;19.90;82.90;;;;;;5009637;28;20037;-62
2022/09/07 04:21:06;;;;;;;6.68;5.97;;;19.90;82.90;;;;;;5010632;28;20049;-62
2022/09/07 04:23:32;;;;;;;9.20;5.78;;;19.90;82.90;;;;;;5006241;28;20038;-62
2022/09/07 04:25:57;;;;;;;6.47;5.50;;;19.90;83.30;;;;;;5007310;28;20045;-63
2022/09/07 04:28:23;;;;;;;6.55;5.38;;;19.90;83.40;;;;;;5004769;28;20042;-62
2022/09/07 04:30:49;;;;;;;6.13;4.65;;;19.90;83.40;;;;;;5008455;28;20088;-63
2022/09/07 04:33:14;;;;;;;8.52;5.30;;;19.90;83.40;;;;;;5008755;28;20030;-63
2022/09/07 04:35:41;;;;;;;6.72;5.07;;;19.90;83.30;;;;;;5005728;28;20659;-63
2022/09/07 04:38:13;;;;;;;7.35;5.00;;;20.00;83.10;;;;;;5011475;28;20034;-63
2022/09/07 04:40:39;;;;;;;10.05;4.88;;;19.90;83.00;;;;;;5009718;28;20033;-62
2022/09/07 04:43:06;;;;;;;7.28;4.82;;;19.90;82.80;;;;;;5007177;28;20164;-62
2022/09/07 04:45:35;;;;;;;7.13;4.28;;;19.90;82.70;;;;;;5007849;28;20045;-62
2022/09/07 04:48:01;;;;;;;6.60;4.50;;;19.90;82.70;;;;;;5012757;28;20038;-62
2022/09/07 04:50:27;;;;;;;5.65;4.00;;;19.80;82.70;;;;;;5011418;28;20094;-61
2022/09/07 04:52:52;;;;;;;4.43;3.55;;;19.80;82.90;;;;;;5011942;28;20042;-63
2022/09/07 04:55:18;;;;;;;9.30;4.40;;;19.80;83.10;;;;;;5010726;28;20053;-62
2022/09/07 04:57:43;;;;;;;5.28;3.90;;;19.70;83.10;;;;;;5011670;28;20037;-62
2022/09/07 05:00:10;;;;;;;7.03;4.18;;;19.70;83.10;;;;;;5011717;28;20038;-64
2022/09/07 05:02:36;;;;;;;7.25;4.47;;;19.70;83.30;;;;;;5008843;28;20465;-62
2022/09/07 05:05:03;;;;;;;6.18;4.60;;;19.60;83.30;;;;;;5013297;28;20536;-63
2022/09/07 05:07:29;;;;;;;5.72;4.38;;;19.70;83.40;;;;;;5011437;28;20046;-64
2022/09/07 05:09:56;;;;;;;6.18;4.40;;;19.60;83.30;;;;;;5010060;28;20045;-62
2022/09/07 05:12:22;;;;;;;5.05;4.40;;;19.60;83.40;;;;;;5010873;28;20052;-62
2022/09/07 05:14:47;;;;;;;6.32;4.68;;;19.60;83.40;;;;;;5010317;28;20338;-63
2022/09/07 05:17:13;;;;;;;5.20;4.72;;;19.60;83.60;;;;;;5011160;28;20029;-62
2022/09/07 05:19:38;;;;;;;6.65;4.88;;;19.60;83.70;;;;;;5009516;28;20052;-62
2022/09/07 05:22:04;;;;;;;5.93;4.43;;;19.60;84.00;;;;;;5010029;28;20046;-62
2022/09/07 05:24:30;;;;;;;6.13;4.03;;;19.60;84.20;;;;;;5012638;28;20387;-63
2022/09/07 05:26:55;;;;;;;5.97;4.05;;;19.60;84.50;;;;;;5013643;28;20077;-62
2022/09/07 05:29:21;;;;;;;7.07;3.85;;;19.60;84.50;;;;;;5012460;28;20077;-62
2022/09/07 05:31:47;;;;;;;4.75;4.03;;;19.70;84.70;;;;;;5012361;28;20405;-62
2022/09/07 05:34:14;;;;;;;4.72;3.78;;;19.70;84.80;;;;;;5009658;28;20029;-62
2022/09/07 05:36:40;;;;;;;5.00;4.07;;;19.80;85.00;;;;;;5011669;28;20422;-60
2022/09/07 05:39:07;;;;;;;7.18;4.35;;;19.80;85.20;;;;;;5011673;28;20084;-62
2022/09/07 05:41:33;;;;;;;7.47;5.10;;;19.90;85.10;;;;;;5010238;28;20037;-60
2022/09/07 05:43:58;;;;;;;4.68;4.22;;;19.90;85.00;;;;;;5011898;28;20034;-63
2022/09/07 05:46:24;;;;;;;6.90;4.65;;;19.90;85.00;;;;;;5006967;28;20034;-60
2022/09/07 05:48:50;;;;;;;8.48;4.70;;;19.90;85.00;;;;;;5006137;28;20041;-62
2022/09/07 05:51:15;;;;;;;6.60;4.13;;;20.00;85.20;;;;;;5009664;28;20581;-62
2022/09/07 05:53:44;;;;;;;6.30;3.97;;;20.00;85.10;;;;;;5003910;28;20050;-62
2022/09/07 05:56:11;;;;;;;6.57;3.83;;;20.10;85.20;;;;;;5009622;28;20041;-62
2022/09/07 05:58:37;;;;;;;4.20;3.63;;;20.10;85.00;;;;;;5010803;28;20061;-64
2022/09/07 06:01:05;;;;;;;7.90;3.97;;;20.20;84.80;;;;;;5011844;28;20064;-63
2022/09/07 06:03:31;;;;;;;7.28;3.88;;;20.20;84.70;;;;;;5010820;28;20477;-62
2022/09/07 06:06:07;;;;;;;4.78;3.50;;;20.30;84.60;;;;;;5010676;28;20493;-62
2022/09/07 06:08:35;;;;;;;6.93;3.60;;;20.30;84.90;;;;;;5009607;28;20104;-61
2022/09/07 06:11:09;;;;;;;5.78;3.70;;;20.40;84.50;;;;;;5008227;28;20041;-62
2022/09/07 06:13:35;;;;;;;5.30;3.38;;;20.40;84.60;;;;;;5008212;28;20407;-60
2022/09/07 06:16:02;;;;;;;4.25;3.25;;;20.50;84.30;;;;;;5011304;28;20080;-62
2022/09/07 06:18:30;;;;;;;4.32;3.30;;;20.50;84.20;;;;;;5008770;28;20133;-60
2022/09/07 06:21:07;;;;;;;6.90;3.45;;;20.50;84.10;;;;;;5008412;28;20045;-64
2022/09/07 06:23:34;;;;;;;10.57;3.30;;;20.60;85.10;;;;;;5008834;28;20042;-62
2022/09/07 06:26:00;;;;;;;6.80;3.67;;;20.60;84.00;;;;;;5010416;28;20402;-62
2022/09/07 06:28:31;;;;;;;6.30;3.58;;;20.60;84.00;;;;;;5007103;28;20045;-62
2022/09/07 06:31:00;;;;;;;6.60;3.92;;;20.60;84.10;;;;;;5010544;28;20126;-62
2022/09/07 06:33:27;;;;;;;6.25;3.88;;;20.60;83.90;;;;;;5008415;28;20041;-62
2022/09/07 06:36:04;;;;;;;4.00;3.60;;;20.60;83.80;;;;;;5010596;28;20037;-63
2022/09/07 06:38:35;;;;;;;6.25;3.63;;;20.70;83.90;;;;;;5008869;28;20069;-62
2022/09/07 06:41:05;;;;;;;6.25;3.47;;;20.60;83.60;;;;;;5008608;28;20041;-61
2022/09/07 06:43:31;;;;;;;8.77;3.70;;;20.70;83.80;;;;;;5007135;28;20041;-62
2022/09/07 06:45:57;;;;;;;6.05;3.65;;;20.70;83.70;;;;;;5009774;28;20043;-62
2022/09/07 06:48:24;;;;;;;5.13;3.83;;;20.70;83.60;;;;;;5012038;28;20566;-62
2022/09/07 06:51:00;;;;;;;4.45;3.28;;;20.70;83.60;;;;;;5034595;28;20119;-62
2022/09/07 06:53:28;;;;;;;4.60;3.65;;;20.70;83.80;;;;;;5033139;28;20033;-63
2022/09/07 06:55:54;;;;;;;5.43;3.35;;;20.70;83.80;;;;;;5035296;28;20033;-61
2022/09/07 06:58:20;;;;;;;6.40;3.10;;;20.70;83.80;;;;;;5034954;28;20276;-62
2022/09/07 07:00:46;;;;;;;3.63;3.03;;;20.70;83.90;;;;;;5035248;28;20120;-62
2022/09/07 07:03:12;;;;;;;5.85;3.15;;;20.80;83.80;;;;;;5035414;28;20036;-61
2022/09/07 07:05:37;;;;;;;4.95;3.38;;;20.80;83.90;;;;;;5033266;28;20033;-63
2022/09/07 07:08:03;;;;;;;4.28;3.20;;;20.80;83.80;;;;;;5031044;28;20048;-62
2022/09/07 07:10:28;;;;;;;6.00;2.90;;;20.80;83.80;;;;;;5034098;28;20048;-62
2022/09/07 07:12:57;;;;;;;4.70;2.92;;;20.80;83.80;;;;;;5034271;28;20566;-61
2022/09/07 07:15:25;;;;;;;3.55;3.00;;;20.90;83.70;;;;;;5033618;28;20029;-63
2022/09/07 07:17:51;;;;;;;3.90;3.50;;;20.90;83.60;;;;;;5034479;28;20065;-63
2022/09/07 07:20:17;;;;;;;4.85;2.97;;;21.00;83.60;;;;;;5030659;28;20133;-63
2022/09/07 07:22:42;;;;;;;6.72;3.17;;;21.00;83.70;;;;;;5033287;28;20447;-62
2022/09/07 07:25:08;;;;;;;5.40;2.60;;;21.00;83.70;;;;;;5034986;28;20051;-66
2022/09/07 07:27:34;;;;;;;9.18;3.88;;;21.10;83.60;;;;;;5033199;28;20040;-63
2022/09/07 07:29:59;;;;;;;8.55;3.83;;;21.20;83.50;;;;;;5035231;28;20591;-63
2022/09/07 07:32:25;;;;;;;5.45;3.70;;;21.20;83.30;;;;;;5029315;28;20029;-64
2022/09/07 07:34:50;;;;;;;4.28;3.03;;;21.30;83.30;;;;;;5032911;28;20383;-62
2022/09/07 07:37:16;;;;;;;7.40;3.35;;;21.30;83.30;;;;;;5031551;28;20025;-63
2022/09/07 07:39:42;;;;;;;7.68;3.65;;;21.30;83.30;;;;;;5032259;28;20048;-62
2022/09/07 07:42:08;;;;;;;4.72;2.92;;;21.40;83.20;;;;;;5036042;28;20036;-63
2022/09/07 07:44:34;;;;;;;8.23;3.22;;;21.40;83.10;;;;;;5033687;28;20037;-63
2022/09/07 07:46:59;;;;;;;5.75;2.90;;;21.40;82.80;;;;;;5033266;28;20373;-63
2022/09/07 07:49:26;;;;;;;6.32;2.72;;;21.60;82.50;;;;;;5026923;28;20041;-63
2022/09/07 07:51:54;;;;;;;4.53;2.92;;;21.60;82.40;;;;;;5034551;28;20385;-63
2022/09/07 07:54:20;;;;;;;7.28;3.38;;;21.60;82.20;;;;;;5034756;28;20453;-63
2022/09/07 07:56:46;;;;;;;5.05;3.03;;;21.70;82.00;;;;;;5034495;28;20120;-63
2022/09/07 07:59:11;;;;;;;4.38;2.70;;;21.70;81.70;;;;;;5030024;28;20584;-65
2022/09/07 08:01:37;;;;;;;4.55;2.55;;;21.80;81.50;;;;;;5025623;28;20045;-61
2022/09/07 08:04:02;;;;;;;2.47;2.28;;;21.90;81.20;;;;;;5034041;28;20041;-63
2022/09/07 08:06:28;;;;;;;6.80;2.10;;;21.90;81.10;;;;;;5029837;28;20467;-63
2022/09/07 08:08:54;;;;;;;4.78;1.65;;;22.00;81.00;;;;;;5035011;28;20033;-63
2022/09/07 08:11:21;;;;;;;4.07;2.05;;;22.10;80.70;;;;;;5031353;28;20079;-61
2022/09/07 08:13:48;;;;;;;2.05;1.80;;;22.20;80.30;;;;;;5033394;28;20473;-63
2022/09/07 08:16:16;;;;;;;5.28;1.80;;;22.20;79.70;;;;;;5036223;28;20409;-61
2022/09/07 08:18:42;;;;;;;5.63;1.95;;;22.30;79.10;;;;;;5008068;28;20131;-64
2022/09/07 08:21:11;;;;;;;4.05;1.63;;;22.40;79.00;;;;;;5013187;28;20087;-62
2022/09/07 08:23:37;;;;;;;3.90;1.60;;;22.40;78.40;;;;;;5011569;28;20129;-62
2022/09/07 08:26:03;;;;;;;2.05;1.55;;;22.50;78.60;;;;;;5014469;28;20064;-64
2022/09/07 08:28:32;;;;;;;3.05;1.67;;;22.50;78.40;;;;;;5011124;28;20042;-61
2022/09/07 08:30:58;;;;;;;6.05;1.70;;;22.60;78.40;;;;;;5012943;28;20045;-62
2022/09/07 08:33:24;;;;;;;4.82;1.85;;;22.70;78.30;;;;;;5011238;28;20038;-63
2022/09/07 08:35:55;;;;;;;3.80;1.63;;;22.70;77.90;;;;;;5012627;28;20045;-63
2022/09/07 08:38:20;;;;;;;2.03;1.63;;;22.80;77.40;;;;;;5009286;28;20048;-61
2022/09/07 08:40:46;;;;;;;3.47;1.55;;;22.90;77.70;;;;;;5009707;28;20041;-63
2022/09/07 08:43:41;;;;;;;3.25;1.67;;;23.00;77.50;;;;;;5009636;28;20417;-64
2022/09/07 08:46:28;;;;;;;3.95;1.70;;;23.10;77.10;;;;;;5011000;28;20120;-64
2022/09/07 08:48:56;;;;;;;2.90;1.60;;;23.20;76.50;;;;;;5030828;28;20037;-62
2022/09/07 08:51:34;;;;;;;7.00;2.00;;;23.20;76.60;;;;;;5033581;28;20037;-61
2022/09/07 08:54:00;;;;;;;3.38;1.52;;;23.30;76.40;;;;;;5033890;28;20491;-62
2022/09/07 08:56:34;;;;;;;3.00;1.80;;;23.40;76.50;;;;;;5034398;28;20119;-64
2022/09/07 08:59:13;;;;;;;5.00;1.95;;;23.40;76.10;;;;;;5033113;28;20033;-64
2022/09/07 09:01:41;;;;;;;2.20;1.63;;;23.50;75.60;;;;;;5031612;28;20047;-62
2022/09/07 09:04:22;;;;;;;4.05;1.70;;;23.60;75.60;;;;;;5032553;28;20508;-63
2022/09/07 09:07:06;;;;;;;4.03;1.58;;;23.60;75.30;;;;;;5031860;28;20462;-63
2022/09/07 09:09:44;;;;;;;2.95;1.65;;;23.80;75.40;;;;;;5033211;28;20067;-63
2022/09/07 09:12:33;;;;;;;2.92;1.70;;;23.80;75.10;;;;;;5031026;28;20123;-65
2022/09/07 09:15:08;;;;;;;3.53;1.70;;;23.90;74.90;;;;;;5029121;28;20464;-63
2022/09/07 09:17:50;;;;;;;2.38;1.73;;;24.00;74.50;;;;;;5032430;28;20123;-62
2022/09/07 09:20:36;;;;;;;4.90;1.73;;;24.10;74.60;;;;;;5035659;28;20045;-63
2022/09/07 09:23:11;;;;;;;;;;;24.10;73.70;;;;;;5018861;28;20037;-64
2022/09/07 09:25:41;;;;;;;2.47;1.45;;;24.20;73.00;;;;;;5036852;28;19917;-62
2022/09/07 09:28:10;;;;;;;4.05;1.55;;;24.20;73.20;;;;;;5034667;28;20151;-62
2022/09/07 09:30:36;;;;;;;3.38;1.60;;;24.30;73.30;;;;;;5029203;28;20087;-62
2022/09/07 09:33:14;;;;;;;2.15;1.42;;;24.30;73.30;;;;;;5031138;28;20045;-63
2022/09/07 09:35:40;;;;;;;2.47;1.40;;;24.40;72.30;;;;;;5029883;28;20338;-62
2022/09/07 09:38:27;;;;;;;3.63;1.60;;;24.40;72.80;;;;;;5026704;28;20033;-64
2022/09/07 09:40:55;;;;;;;3.75;1.42;;;24.50;71.30;;;;;;5009366;28;20037;-63
2022/09/07 09:43:25;;;;;;;3.33;1.50;;;24.60;71.60;;;;;;5013763;28;20044;-63
2022/09/07 09:45:53;;;;;;;3.15;1.30;;;24.60;71.40;;;;;;5013785;28;20037;-63
2022/09/07 09:48:32;;;;;;;3.88;1.45;;;24.70;71.30;;;;;;5011487;28;20033;-62
2022/09/07 09:51:00;;;;;;;4.72;1.45;;;24.70;70.90;;;;;;5032730;28;20068;-64
2022/09/07 09:53:33;;;;;;;3.58;1.52;;;24.80;70.70;;;;;;5030663;28;20057;-64
2022/09/07 09:56:06;;;;;;;2.35;1.40;;;24.80;69.90;;;;;;5030634;28;20516;-64
2022/09/07 09:58:31;;;;;;;1.80;1.23;;;24.90;69.50;;;;;;5033011;28;20071;-63
2022/09/07 10:01:02;;;;;;;1.90;1.13;;;25.00;70.50;;;;;;5035891;28;20356;-63
2022/09/07 10:03:37;;;;;;;4.60;1.33;;;25.00;69.50;;;;;;5032748;28;20160;-62
2022/09/07 10:06:07;;;;;;;4.28;1.48;;;25.10;70.00;;;;;;5037011;28;20049;-63
2022/09/07 10:08:35;;;;;;;2.33;1.20;;;25.10;70.70;;;;;;5033780;28;20049;-63
2022/09/07 10:11:06;;;;;;;4.18;1.40;;;25.20;70.60;;;;;;5034025;28;20052;-63
2022/09/07 10:13:35;;;;;;;1.77;1.13;;;25.30;69.10;;;;;;5028934;28;20041;-63
2022/09/07 10:16:04;;;;;;;4.50;1.52;;;25.40;67.90;;;;;;5031861;28;20137;-64
2022/09/07 10:18:40;;;;;;;2.50;1.30;;;25.50;67.90;;;;;;5029408;28;20029;-66
2022/09/07 10:21:23;;;;;;;6.40;1.40;;;25.50;67.60;;;;;;5032905;28;20033;-63
2022/09/07 10:24:04;;;;;;;3.33;1.27;;;25.60;66.90;;;;;;5033776;28;20238;-65
2022/09/07 10:26:34;;;;;;;3.42;1.52;;;25.60;65.90;;;;;;5034960;28;20507;-63
2022/09/07 10:29:25;;;;;;;3.70;1.33;;;25.60;66.60;;;;;;5037224;28;20044;-62
2022/09/07 10:31:53;;;;;;;2.17;1.42;;;25.70;66.00;;;;;;5035101;28;20044;-65
2022/09/07 10:34:28;;;;;;;2.72;1.40;;;25.70;66.40;;;;;;5037453;28;20474;-62
2022/09/07 10:37:04;;;;;;;3.28;1.35;;;25.80;65.30;;;;;;5034043;28;20131;-62
2022/09/07 10:39:40;;;;;;;2.47;1.50;;;25.80;65.90;;;;;;5035983;28;20038;-62
2022/09/07 10:42:09;;;;;;;2.67;1.33;;;25.80;64.50;;;;;;5034746;28;20513;-65
2022/09/07 10:45:14;;;;;;;2.83;1.30;;;25.80;64.80;;;;;;5032156;28;20068;-63
2022/09/07 10:47:58;;;;;;;3.20;1.40;;;25.90;63.70;;;;;;5037673;28;20521;-63
2022/09/07 10:50:35;;;;;;;2.33;1.40;;;25.90;65.40;;;;;;5034712;28;20497;-62
2022/09/07 10:53:05;;;;;;;2.17;1.20;;;26.00;65.30;;;;;;5034571;28;20413;-63
2022/09/07 10:55:35;;;;;;;3.22;1.40;;;26.00;65.70;;;;;;5035114;28;20075;-63
2022/09/07 10:58:24;;;;;;;5.45;1.92;;;26.00;66.10;;;;;;5034005;28;20033;-63
2022/09/07 11:01:12;;;;;;;5.28;1.60;;;26.00;65.30;;;;;;5033903;28;20071;-62
2022/09/07 11:04:02;;;;;;;4.32;1.65;;;26.20;64.70;;;;;;5035370;28;20029;-64
2022/09/07 11:06:33;;;;;;;5.07;1.35;;;26.20;65.40;;;;;;5034956;28;20140;-64
2022/09/07 11:09:17;;;;;;;3.35;1.25;;;26.30;65.30;;;;;;5036466;28;20030;-63
2022/09/07 11:11:50;;;;;;;1.65;1.08;;;26.40;64.50;;;;;;5034791;28;20536;-63
2022/09/07 11:14:21;;;;;;;2.38;1.30;;;26.40;64.50;;;;;;5033990;28;20046;-63
2022/09/07 11:16:56;;;;;;;3.38;1.20;;;26.50;64.50;;;;;;5032926;28;20036;-61
2022/09/07 11:19:34;;;;;;;1.70;1.05;;;26.50;64.20;;;;;;5034134;28;20419;-63
2022/09/07 11:22:25;;;;;;;1.55;1.30;;;26.60;64.00;;;;;;5033841;28;20041;-62
2022/09/07 11:25:07;;;;;;;3.28;1.20;;;26.60;61.50;;;;;;5013377;28;20051;-63
2022/09/07 11:27:42;;;;;;;1.98;1.20;;;26.60;60.20;;;;;;5014873;28;21002;-62
2022/09/07 11:30:31;;;;;;;2.80;1.20;;;26.70;60.00;;;;;;5015457;28;20061;-63
2022/09/07 11:33:09;;;;;;;3.03;1.35;;;26.70;59.10;;;;;;5012166;28;20124;-64
2022/09/07 11:35:58;;;;;;;2.13;1.00;;;26.70;59.40;;;;;;5013057;28;20382;-64
2022/09/07 11:38:26;;;;;;;1.63;1.00;;;26.90;59.50;;;;;;5009724;28;20437;-63
2022/09/07 11:41:21;;;;;;;2.08;1.00;;;26.80;59.80;;;;;;5014101;28;20034;-61
2022/09/07 11:44:23;;;;;;;3.17;1.17;;;26.80;58.10;;;;;;5013570;28;20395;-63
2022/09/07 11:46:56;;;;;;;1.58;1.00;;;26.80;58.80;;;;;;5012318;28;20026;-63
2022/09/07 11:49:24;;;;;;;2.08;1.10;;;26.80;58.60;;;;;;5009106;28;20033;-63
2022/09/07 11:51:55;;;;;;;1.23;0.95;;;26.90;59.30;;;;;;5006884;28;20585;-62
2022/09/07 11:54:43;;;;;;;3.58;1.40;;;26.80;58.00;;;;;;5011091;28;20406;-65
2022/09/07 11:57:14;;;;;;;3.35;1.15;;;26.90;58.00;;;;;;5012020;28;20054;-64
2022/09/07 11:59:58;;;;;;;4.22;1.20;;;27.00;58.30;;;;;;5008584;28;20056;-62
2022/09/07 12:02:55;;;;;;;4.22;1.27;;;27.00;58.10;;;;;;5009563;28;20030;-62
2022/09/07 12:05:42;;;;;;;2.42;1.30;;;27.00;58.40;;;;;;5009221;28;20038;-63
2022/09/07 12:08:32;;;;;;;5.22;1.17;;;27.10;58.30;;;;;;5009268;28;20037;-62
2022/09/07 12:11:19;;;;;;;3.33;1.08;;;27.10;57.60;;;;;;5007099;28;20132;-62
2022/09/07 12:13:47;;;;;;;2.45;1.02;;;27.20;57.50;;;;;;5008860;28;20045;-64
2022/09/07 12:16:13;;;;;;;5.28;1.10;;;27.20;58.10;;;;;;5007912;28;20136;-64
2022/09/07 12:19:11;;;;;;;4.70;1.00;;;27.30;57.80;;;;;;5011583;28;20124;-63
2022/09/07 12:21:51;;;;;;;5.63;1.00;;;27.40;56.70;;;;;;5012940;28;20495;-64
2022/09/07 12:24:47;;;;;;;2.72;1.08;;;27.40;56.60;;;;;;5014897;28;20042;-62
2022/09/07 12:27:18;;;;;;;3.45;1.00;;;27.50;56.40;;;;;;5010574;28;20689;-65
2022/09/07 12:29:45;;;;;;;2.17;0.90;;;27.60;55.50;;;;;;5011854;28;20505;-64
2022/09/07 12:32:11;;;;;;;6.65;0.85;;;27.60;54.40;;;;;;5010478;28;20038;-63
2022/09/07 12:34:48;;;;;;;1.35;0.90;;;27.60;54.10;;;;;;5011228;28;20048;-64
2022/09/07 12:37:25;;;;;;;3.55;0.80;;;27.60;55.00;;;;;;5014388;28;20555;-64
2022/09/07 12:40:36;;;;;;;1.83;1.02;;;27.70;53.50;;;;;;5013197;28;20064;-63
2022/09/07 12:43:13;;;;;;;2.67;0.88;;;27.80;53.90;;;;;;5011687;28;20034;-63
2022/09/07 12:45:39;;;;;;;2.25;0.63;;;27.90;53.00;;;;;;5007014;28;20036;-63
2022/09/07 12:48:14;;;;;;;2.92;0.80;;;28.00;52.90;;;;;;5008435;28;20050;-64
2022/09/07 12:50:54;;;;;;;;;;;28.00;51.90;;;;;;5008628;28;20133;-63
2022/09/07 12:53:22;;;;;;;1.20;0.60;;;28.10;53.40;;;;;;5008123;28;19917;-63
2022/09/07 12:56:04;;;;;;;1.63;0.80;;;28.10;51.60;;;;;;5010300;28;20042;-63
2022/09/07 12:58:44;;;;;;;1.42;0.50;;;28.10;50.00;;;;;;5006489;28;20033;-63
2022/09/07 13:01:35;;;;;;;1.65;0.93;;;28.20;49.00;;;;;;5010054;28;20111;-65
2022/09/07 13:04:29;;;;;;;2.50;0.75;;;28.20;48.50;;;;;;5011629;28;20030;-65
2022/09/07 13:07:03;;;;;;;1.92;0.80;;;28.30;48.50;;;;;;5011134;28;20099;-64
2022/09/07 13:09:55;;;;;;;2.47;0.82;;;28.20;50.30;;;;;;5012713;28;20041;-63
2022/09/07 13:12:34;;;;;;;2.03;0.80;;;28.20;48.90;;;;;;5010398;28;20042;-64